Time;durP1;ratioP1;P1;durP2;ratioP2;P2;SDS_P1;SDS_P2;PMS_P1;PMS_P2;Temp;Humidity;BMP_temperature;BMP_pressure;BME280_temperature;BME280_humidity;BME280_pressure;Samples;Min_cycle;Max_cycle;Signal;HPM_P1;HPM_P2
2021/09/16 05:43:43;;;;;;;;;;;;;;;9.60;73.57;99782.19;5777319;23;19931;-86
2021/09/16 05:46:11;;;;;;;;;;;;;;;9.59;73.31;99788.75;4973307;28;19926;-84
2021/09/16 05:48:37;;;;;;;;;;;;;;;9.65;73.83;99784.84;4973380;28;19925;-86
2021/09/16 05:51:03;;;;;;;;;;;;;;;9.79;73.92;99781.34;4971895;28;19972;-86
2021/09/16 05:53:29;;;;;;;;;;;;;;;9.85;73.75;99789.19;4973111;28;19926;-85
2021/09/16 05:55:56;;;;;;;;;;;;;;;9.81;73.34;99779.16;4973221;28;19934;-86
2021/09/16 05:58:21;;;;;;;;;;;;;;;9.70;74.94;99783.97;4971953;28;19926;-87
2021/09/16 06:00:49;;;;;;;;;;;;;;;9.75;74.12;99789.34;4955725;28;19926;-86
2021/09/16 06:03:18;;;;;;;;;;;;;;;9.84;73.86;99784.03;4965060;28;19976;-85
2021/09/16 06:05:44;;;;;;;;;;;;;;;9.85;73.75;99788.38;4987822;28;19934;-86
2021/09/16 06:08:10;;;;;;;;;;;;;;;9.95;73.30;99785.47;4989768;28;19925;-85
2021/09/16 06:10:36;;;;;;;;;;;;;;;9.96;72.91;99784.38;4972402;28;19926;-85
2021/09/16 06:13:01;;;;;;;;;;;;;;;9.99;73.71;99789.22;4967952;28;19930;-85
2021/09/16 06:15:27;;;;;;;;;;;;;;;10.09;73.77;99791.78;4971063;28;19926;-86
2021/09/16 06:17:53;;;;;;;;;;;;;;;10.15;73.75;99797.19;4971229;28;19930;-91
2021/09/16 06:20:19;;;;;;;;;;;;;;;10.07;72.93;99794.03;4972919;28;19926;-86
2021/09/16 06:22:48;;;;;;;;;;;;;;;9.92;72.88;99798.91;4974022;28;19926;-87
2021/09/16 06:25:16;;;;;;;;;;;;;;;9.94;74.12;99797.53;4972843;28;19926;-94
2021/09/16 06:27:42;;;;;;;;;;;;;;;9.90;73.26;99804.69;4941662;28;19930;-92
2021/09/16 06:30:09;;;;;;;;;;;;;;;9.79;73.82;99806.75;4940699;28;19933;-93
2021/09/16 06:32:37;;;;;;;;;;;;;;;9.60;74.46;99812.22;4955991;28;19926;-87
2021/09/16 06:35:07;;;;;;;;;;;;;;;9.62;74.90;99804.53;4940291;28;20017;-88
2021/09/16 06:37:33;;;;;;;;;;;;;;;9.72;74.07;99817.22;4955725;28;19926;-85
2021/09/16 06:39:59;;;;;;;;;;;;;;;9.71;74.88;99818.34;4972835;28;20024;-87
2021/09/16 06:42:25;;;;;;;;;;;;;;;9.65;74.58;99817.59;4955439;28;20024;-86
2021/09/16 06:44:51;;;;;;;;;;;;;;;9.55;74.65;99820.47;4972441;28;19926;-91
2021/09/16 06:47:17;;;;;;;;;;;;;;;9.57;75.67;99817.44;4972786;28;19926;-86
2021/09/16 06:49:48;;;;;;;;;;;;;;;9.56;75.07;99824.00;4972550;28;19932;-86
2021/09/16 06:52:16;;;;;;;;;;;;;;;9.51;74.68;99824.09;4972377;28;19949;-94
2021/09/16 06:54:42;;;;;;;;;;;;;;;9.45;74.57;99831.50;4940404;28;20485;-91
2021/09/16 06:57:09;;;;;;;;;;;;;;;9.48;74.86;99820.00;4973106;28;20359;-94
2021/09/16 06:59:37;;;;;;;;;;;;;;;9.52;75.53;99823.78;4955882;28;19969;-91
2021/09/16 07:02:03;;;;;;;;;;;;;;;9.56;74.27;99819.34;4940167;28;19949;-92
2021/09/16 07:04:30;;;;;;;;;;;;;;;9.61;73.48;99824.75;4958161;28;19933;-92
2021/09/16 07:06:58;;;;;;;;;;;;;;;9.67;73.03;99827.41;4959495;28;19991;-91
2021/09/16 07:09:24;;;;;;;;;;;;;;;9.65;74.34;99825.78;4959331;28;20021;-90
2021/09/16 07:11:50;;;;;;;;;;;;;;;9.62;72.93;99826.38;4976302;28;19930;-92
2021/09/16 07:14:16;;;;;;;;;;;;;;;9.65;72.83;99825.78;4959471;28;19922;-90
2021/09/16 07:16:42;;;;;;;;;;;;;;;9.65;72.16;99824.97;4959117;28;20323;-91
2021/09/16 07:19:08;;;;;;;;;;;;;;;9.69;73.24;99820.53;4959592;28;20310;-93
2021/09/16 07:21:34;;;;;;;;;;;;;;;9.83;72.85;99826.06;4943396;28;20044;-91
2021/09/16 07:26:27;;;;;;;;;;;;;;;10.07;72.46;99828.75;4976891;28;19926;-92
2021/09/16 07:28:53;;;;;;;;;;;;;;;10.03;70.67;99836.72;4943107;28;19930;-91
2021/09/16 07:31:19;;;;;;;;;;;;;;;10.12;70.09;99837.66;4960005;28;19926;-92
2021/09/16 07:33:47;;;;;;;;;;;;;;;10.03;70.06;99828.53;4958871;28;19922;-94
2021/09/16 07:36:12;;;;;;;;;;;;;;;9.95;70.44;99837.38;4942916;28;19961;-90
2021/09/16 07:38:38;;;;;;;;;;;;;;;9.94;70.55;99837.69;4975423;28;19972;-93
2021/09/16 07:41:04;;;;;;;;;;;;;;;9.98;70.73;99838.72;4942791;28;20405;-92
2021/09/16 07:43:32;;;;;;;;;;;;;;;10.08;69.99;99839.34;4943266;28;19934;-92
2021/09/16 07:45:58;;;;;;;;;;;;;;;10.37;69.98;99846.59;4943185;28;20357;-92
2021/09/16 07:48:30;;;;;;;;;;;;;;;10.41;68.62;99846.81;4959740;28;19976;-93
2021/09/16 07:50:56;;;;;;;;;;;;;;;10.37;67.74;99854.00;4942838;28;19976;-93
2021/09/16 07:53:22;;;;;;;;;;;;;;;10.36;68.36;99855.88;4942990;28;19926;-91
2021/09/16 07:55:48;;;;;;;;;;;;;;;10.18;68.36;99859.44;4942781;28;19981;-92
2021/09/16 07:58:14;;;;;;;;;;;;;;;10.21;68.26;99859.66;4942614;28;19957;-94
2021/09/16 08:00:40;;;;;;;;;;;;;;;10.28;68.13;99859.31;4942705;28;19925;-92
2021/09/16 08:03:06;;;;;;;;;;;;;;;10.28;66.81;99853.84;4959395;28;20351;-91
2021/09/16 08:05:32;;;;;;;;;;;;;;;10.42;67.65;99860.16;4959534;28;20021;-93
2021/09/16 08:07:58;;;;;;;;;;;;;;;10.56;66.69;99852.00;4974605;28;20043;-91
2021/09/16 08:10:24;;;;;;;;;;;;;;;10.53;67.69;99850.69;4975470;28;19932;-90
2021/09/16 08:12:51;;;;;;;;;;;;;;;10.62;67.21;99859.00;4974649;28;20025;-91
2021/09/16 08:15:18;;;;;;;;;;;;;;;10.69;65.61;99856.69;4941917;28;20028;-90
2021/09/16 08:17:44;;;;;;;;;;;;;;;10.55;66.11;99856.66;4957516;28;19926;-90
2021/09/16 08:20:11;;;;;;;;;;;;;;;10.54;66.11;99859.72;4975845;28;19926;-89
2021/09/16 08:22:37;;;;;;;;;;;;;;;10.59;66.84;99859.59;4958219;28;20025;-90
2021/09/16 08:25:04;;;;;;;;;;;;;;;10.67;66.52;99866.31;4973843;28;20037;-93
2021/09/16 08:27:32;;;;;;;;;;;;;;;10.65;65.90;99863.06;4957624;28;19933;-94
2021/09/16 08:29:59;;;;;;;;;;;;;;;10.80;65.96;99863.63;4973719;28;19926;-90
2021/09/16 08:32:25;;;;;;;;;;;;;;;10.96;64.79;99855.94;4957690;28;19926;-93
2021/09/16 08:34:51;;;;;;;;;;;;;;;10.89;63.30;99869.19;4975090;28;20422;-91
2021/09/16 08:37:17;;;;;;;;;;;;;;;10.87;64.03;99868.69;4973998;28;19933;-91
2021/09/16 08:39:43;;;;;;;;;;;;;;;10.95;63.94;99870.72;4957360;28;19988;-91
2021/09/16 08:42:09;;;;;;;;;;;;;;;11.00;63.75;99859.69;4957218;28;19933;-91
2021/09/16 08:44:36;;;;;;;;;;;;;;;11.15;64.26;99866.78;4941123;28;19937;-90
2021/09/16 08:47:02;;;;;;;;;;;;;;;11.46;63.78;99875.22;4941424;28;19949;-90
2021/09/16 08:49:28;;;;;;;;;;;;;;;11.61;62.82;99867.81;4957375;28;20307;-90
2021/09/16 08:51:54;;;;;;;;;;;;;;;11.53;61.72;99872.06;4957202;28;19926;-89
2021/09/16 08:54:21;;;;;;;;;;;;;;;11.64;60.86;99867.19;4957319;28;19926;-90
2021/09/16 08:56:48;;;;;;;;;;;;;;;11.71;61.64;99873.88;4957421;28;19926;-91
2021/09/16 08:59:14;;;;;;;;;;;;;;;11.86;61.94;99869.22;4975419;28;19999;-90
2021/09/16 09:01:44;;;;;;;;;;;;;;;12.09;61.65;99862.66;4957247;28;20422;-95
2021/09/16 09:04:12;;;;;;;;;;;;;;;12.08;59.98;99868.44;4957337;28;20014;-91
2021/09/16 09:06:38;;;;;;;;;;;;;;;11.88;60.63;99872.44;4956860;28;19926;-90
2021/09/16 09:09:11;;;;;;;;;;;;;;;11.78;60.13;99867.97;4956892;28;19926;-90
2021/09/16 09:11:49;;;;;;;;;;;;;;;11.79;60.69;99871.50;4925351;28;19958;-90
2021/09/16 09:14:17;;;;;;;;;;;;;;;11.97;59.51;99882.38;4956881;28;20012;-91
2021/09/16 09:16:43;;;;;;;;;;;;;;;12.05;59.30;99888.22;4973186;28;19926;-90
2021/09/16 09:19:16;;;;;;;;;;;;;;;11.86;59.11;99897.44;4940899;28;20309;-91
2021/09/16 09:21:44;;;;;;;;;;;;;;;11.87;59.44;99892.75;4957050;28;19926;-90
2021/09/16 09:24:10;;;;;;;;;;;;;;;11.88;60.39;99884.22;4956470;28;19933;-89
2021/09/16 09:26:38;;;;;;;;;;;;;;;11.92;59.90;99879.75;4939952;28;19926;-90
2021/09/16 09:29:07;;;;;;;;;;;;;;;12.18;60.13;99884.63;4973691;28;19926;-94
2021/09/16 09:31:35;;;;;;;;;;;;;;;12.35;59.91;99879.31;4972862;28;19930;-90
2021/09/16 09:34:21;;;;;;;;;;;;;;;12.22;59.58;99872.78;4972572;28;20013;-90
2021/09/16 09:36:47;;;;;;;;;;;;;;;12.12;58.72;99885.88;4956749;28;19930;-90
2021/09/16 09:39:13;;;;;;;;;;;;;;;12.20;59.03;99880.47;4956488;28;20318;-90
2021/09/16 09:41:39;;;;;;;;;;;;;;;12.20;58.70;99890.63;4972457;28;19961;-90
2021/09/16 09:44:08;;;;;;;;;;;;;;;12.18;59.15;99888.19;4955984;28;19977;-94
2021/09/16 09:46:42;;;;;;;;;;;;;;;12.18;58.23;99890.13;4973683;28;20149;-89
2021/09/16 09:49:10;;;;;;;;;;;;;;;12.04;59.33;99894.84;4974274;28;20276;-93
2021/09/16 09:51:36;;;;;;;;;;;;;;;11.98;59.61;99891.41;4956489;28;19981;-91
2021/09/16 09:54:18;;;;;;;;;;;;;;;11.91;60.05;99900.03;4956209;28;19926;-90
2021/09/16 09:57:17;;;;;;;;;;;;;;;11.64;60.30;99891.84;4972156;28;19964;-90
2021/09/16 09:59:57;;;;;;;;;;;;;;;11.38;60.90;99906.03;4894654;29;20433;-90
2021/09/16 10:02:29;;;;;;;;;;;;;;;11.28;61.75;99904.31;4894937;29;19927;-89
2021/09/16 10:04:56;;;;;;;;;;;;;;;11.18;62.65;99903.69;4894810;29;19927;-90
2021/09/16 10:07:32;;;;;;;;;;;;;;;11.14;62.79;99903.50;4863789;29;19927;-91
2021/09/16 10:10:01;;;;;;;;;;;;;;;11.29;62.37;99910.59;4848540;29;20350;-93
2021/09/16 10:12:28;;;;;;;;;;;;;;;11.21;61.61;99917.56;4863734;29;19928;-90
2021/09/16 10:14:54;;;;;;;;;;;;;;;11.22;61.48;99913.72;4879345;29;19935;-90
2021/09/16 10:17:20;;;;;;;;;;;;;;;11.28;61.45;99904.31;4863762;29;19966;-91
2021/09/16 10:19:46;;;;;;;;;;;;;;;11.35;62.61;99914.03;4848342;29;19966;-90
2021/09/16 10:22:14;;;;;;;;;;;;;;;11.47;61.58;99912.44;4894633;29;19968;-90
2021/09/16 10:24:43;;;;;;;;;;;;;;;11.52;62.05;99917.81;4863635;29;20037;-90
2021/09/16 10:27:26;;;;;;;;;;;;;;;11.69;60.77;99908.97;4894766;29;19933;-91
2021/09/16 10:29:53;;;;;;;;;;;;;;;11.90;59.88;99917.59;4879267;29;19934;-91
2021/09/16 10:32:19;;;;;;;;;;;;;;;12.07;59.08;99907.94;4894777;29;19927;-90
2021/09/16 10:34:59;;;;;;;;;;;;;;;12.27;59.34;99912.13;4884201;28;19926;-90
2021/09/16 10:37:34;;;;;;;;;;;;;;;12.46;57.86;99915.53;4972403;28;20359;-90
2021/09/16 10:40:00;;;;;;;;;;;;;;;12.25;55.25;99912.47;4976858;28;20371;-96
2021/09/16 10:42:44;;;;;;;;;;;;;;;12.13;55.57;99906.69;4975788;28;19981;-90
2021/09/16 10:45:11;;;;;;;;;;;;;;;12.19;55.50;99911.75;4976402;28;19932;-90
2021/09/16 10:47:36;;;;;;;;;;;;;;;12.24;55.00;99916.31;4955030;29;19927;-94
2021/09/16 10:50:21;;;;;;;;;;;;;;;12.31;55.03;99911.19;4940295;29;19926;-91
2021/09/16 10:52:48;;;;;;;;;;;;;;;12.36;54.90;99908.34;4954113;28;20033;-90
2021/09/16 10:55:33;;;;;;;;;;;;;;;12.41;53.61;99907.41;4973870;28;20038;-90
2021/09/16 10:58:21;;;;;;;;;;;;;;;12.44;55.46;99891.16;4977443;28;20270;-93
2021/09/16 11:01:02;;;;;;;;;;;;;;;12.52;54.20;99895.09;5144963;27;19969;-90
2021/09/16 11:03:58;;;;;;;;;;;;;;;12.39;53.09;99898.69;5089031;27;19920;-89
2021/09/16 11:06:41;;;;;;;;;;;;;;;12.50;53.37;99902.81;5089137;27;19920;-91
2021/09/16 11:09:07;;;;;;;;;;;;;;;12.41;54.02;99908.22;5088466;28;19970;-89
2021/09/16 11:11:51;;;;;;;;;;;;;;;12.51;54.75;99906.34;5088838;28;20414;-92
2021/09/16 11:14:26;;;;;;;;;;;;;;;12.46;52.99;99910.84;5090444;28;19931;-92
2021/09/16 11:16:52;;;;;;;;;;;;;;;12.51;52.65;99900.88;5089102;28;20389;-92
2021/09/16 11:19:30;;;;;;;;;;;;;;;12.49;53.09;99906.69;5052081;27;2264055;-90
2021/09/16 11:22:10;;;;;;;;;;;;;;;12.53;53.60;99902.19;5123389;27;20066;-93
2021/09/16 11:24:53;;;;;;;;;;;;;;;12.49;52.67;99908.63;5110974;27;19928;-90
2021/09/16 11:27:39;;;;;;;;;;;;;;;12.41;53.89;99905.47;5090263;28;19925;-93
2021/09/16 11:30:19;;;;;;;;;;;;;;;12.29;54.55;99904.44;5071145;28;19947;-90
2021/09/16 11:33:05;;;;;;;;;;;;;;;12.24;54.85;99913.56;5110295;27;19931;-94
2021/09/16 11:35:46;;;;;;;;;;;;;;;12.37;55.00;99917.38;5089926;27;19924;-89
2021/09/16 11:38:27;;;;;;;;;;;;;;;12.27;54.79;99918.44;5089695;27;20379;-93
2021/09/16 11:41:06;;;;;;;;;;;;;;;12.17;55.15;99913.19;5089388;27;19925;-93
2021/09/16 11:43:46;;;;;;;;;;;;;;;12.11;55.98;99914.41;5089791;27;19924;-89
2021/09/16 11:46:27;;;;;;;;;;;;;;;12.07;56.54;99907.94;5089566;28;19924;-88
2021/09/16 11:49:07;;;;;;;;;;;;;;;12.14;56.21;99919.28;5090113;27;20327;-89
2021/09/16 11:51:53;;;;;;;;;;;;;;;12.18;55.67;99914.78;5090353;27;19947;-93
2021/09/16 11:54:33;;;;;;;;;;;;;;;12.36;55.78;99913.84;5067150;28;19983;-79
2021/09/16 11:57:15;;;;;;;;;;;;;;;12.42;55.14;99909.84;5116323;27;20418;-84
2021/09/16 12:00:19;;;;;;;;;;;;;;;12.41;54.42;99913.69;5145176;27;19952;-84
2021/09/16 12:02:58;;;;;;;;;;;;;;;12.47;54.52;99906.16;5088010;27;2172855;-84
2021/09/16 12:05:38;;;;;;;;;;;;;;;12.51;54.51;99911.84;5109862;27;19970;-84
2021/09/16 12:08:29;;;;;;;;;;;;;;;12.65;54.71;99901.63;5108289;27;20397;-82
2021/09/16 12:11:12;;;;;;;;;;;;;;;12.72;53.68;99898.47;5091943;27;19932;-86
2021/09/16 12:13:59;;;;;;;;;;;;;;;12.78;53.94;99898.00;5129261;27;19981;-83
2021/09/16 12:16:40;;;;;;;;;;;;;;;12.68;53.96;99899.06;5082412;27;20316;-83
2021/09/16 12:19:21;;;;;;;;;;;;;;;12.60;53.98;99896.25;5087593;27;19924;-83
2021/09/16 12:22:01;;;;;;;;;;;;;;;12.05;53.51;99893.72;5087817;28;19924;-85
2021/09/16 12:24:41;;;;;;;;;;;;;;;11.79;54.39;99894.25;5087370;28;19969;-84
2021/09/16 12:27:21;;;;;;;;;;;;;;;11.72;55.88;99899.31;5080193;27;19998;-86
2021/09/16 12:30:18;;;;;;;;;;;;;;;11.76;55.21;99898.41;5088072;27;19996;-82
2021/09/16 12:32:59;;;;;;;;;;;;;;;11.63;54.79;99896.50;5087833;27;19978;-83
2021/09/16 12:35:41;;;;;;;;;;;;;;;11.61;54.91;99897.91;5088088;27;19966;-84
2021/09/16 12:38:20;;;;;;;;;;;;;;;11.57;55.59;99899.66;5108656;27;19982;-84
2021/09/16 12:41:19;;;;;;;;;;;;;;;11.62;55.27;99897.63;5087983;27;19928;-84
2021/09/16 12:44:01;;;;;;;;;;;;;;;11.74;54.60;99897.09;5108360;27;19920;-84
2021/09/16 12:46:42;;;;;;;;;;;;;;;11.61;54.71;99890.50;5091540;27;19974;-83
2021/09/16 12:49:25;;;;;;;;;;;;;;;11.75;54.87;99890.50;5108069;27;20325;-82
2021/09/16 12:52:20;;;;;;;;;;;;;;;11.93;54.95;99888.78;5088016;27;19921;-83
2021/09/16 12:55:01;;;;;;;;;;;;;;;11.91;53.85;99894.56;5090474;28;19928;-83
2021/09/16 12:57:44;;;;;;;;;;;;;;;11.94;54.28;99893.13;5099947;27;19982;-88
2021/09/16 13:00:24;;;;;;;;;;;;;;;11.80;54.81;99906.84;5093252;28;19989;-83
2021/09/16 13:03:15;;;;;;;;;;;;;;;11.51;55.59;99905.22;5089192;28;19932;-82
2021/09/16 13:06:09;;;;;;;;;;;;;;;11.22;56.39;99899.22;5093135;27;19974;-83
2021/09/16 13:08:52;;;;;;;;;;;;;;;10.99;57.31;99907.34;5089331;27;19978;-83
2021/09/16 13:11:33;;;;;;;;;;;;;;;11.13;59.19;99914.75;5040144;27;3068731;-81
2021/09/16 13:14:12;;;;;;;;;;;;;;;11.17;56.19;99915.75;5066259;27;2155136;-81
2021/09/16 13:16:53;;;;;;;;;;;;;;;10.95;56.66;99906.28;5069141;28;19932;-80
2021/09/16 13:19:33;;;;;;;;;;;;;;;10.83;57.11;99903.25;5170451;27;19927;-87
2021/09/16 13:22:14;;;;;;;;;;;;;;;10.70;56.42;99906.75;5089518;27;19978;-80
2021/09/16 13:24:54;;;;;;;;;;;;;;;10.66;57.82;99908.44;5090654;28;19929;-80
2021/09/16 13:27:34;;;;;;;;;;;;;;;10.75;57.70;99910.19;5137132;27;19928;-80
2021/09/16 13:30:14;;;;;;;;;;;;;;;10.73;56.65;99908.88;5089301;27;19970;-79
2021/09/16 13:32:53;;;;;;;;;;;;;;;10.65;56.52;99902.16;5069356;28;19925;-79
2021/09/16 13:35:33;;;;;;;;;;;;;;;10.74;57.17;99903.09;5089584;28;19925;-79
2021/09/16 13:38:12;;;;;;;;;;;;;;;10.80;56.65;99896.44;5093433;27;2217747;-79
2021/09/16 13:40:53;;;;;;;;;;;;;;;10.90;56.72;99906.38;5088352;27;19971;-90
2021/09/16 13:43:33;;;;;;;;;;;;;;;10.88;56.13;99903.13;5089654;27;19925;-88
2021/09/16 13:46:12;;;;;;;;;;;;;;;10.88;56.55;99905.88;5088802;27;19970;-79
2021/09/16 13:48:54;;;;;;;;;;;;;;;10.92;57.29;99919.75;5088609;27;19928;-87
2021/09/16 13:51:35;;;;;;;;;;;;;;;11.08;56.82;99914.81;5088635;27;19998;-88
2021/09/16 13:54:16;;;;;;;;;;;;;;;11.19;57.47;99914.34;5089008;27;19986;-88
2021/09/16 13:56:56;;;;;;;;;;;;;;;11.19;57.45;99917.09;5088739;27;19929;-88
2021/09/16 13:59:36;;;;;;;;;;;;;;;11.29;56.16;99911.41;5088627;28;19944;-79
2021/09/16 14:02:16;;;;;;;;;;;;;;;11.34;56.89;99909.69;5108841;27;20281;-79
2021/09/16 14:04:57;;;;;;;;;;;;;;;11.33;54.55;99917.09;5088619;27;20010;-79
2021/09/16 14:07:39;;;;;;;;;;;;;;;10.89;57.76;99920.34;5129415;27;19927;-81
2021/09/16 14:10:18;;;;;;;;;;;;;;;10.54;60.14;99926.13;5090857;28;19978;-91
2021/09/16 14:12:59;;;;;;;;;;;;;;;10.37;61.30;99927.78;5149514;27;19963;-91
2021/09/16 14:15:36;;;;;;;;;;;;;;;10.26;61.59;99924.34;5097231;27;2201306;-93
2021/09/16 14:18:16;;;;;;;;;;;;;;;10.14;62.47;99926.72;5091119;27;19970;-95
2021/09/16 14:20:56;;;;;;;;;;;;;;;10.04;62.26;99936.66;5070955;28;19925;-83
2021/09/16 14:23:38;;;;;;;;;;;;;;;9.94;62.66;99941.47;5109491;27;20435;-92
2021/09/16 14:26:18;;;;;;;;;;;;;;;9.92;62.81;99941.75;5089031;27;20006;-94
2021/09/16 14:28:57;;;;;;;;;;;;;;;9.91;62.50;99942.84;5089682;27;19928;-80
2021/09/16 14:31:38;;;;;;;;;;;;;;;9.94;63.54;99945.00;5089901;27;20355;-79
2021/09/16 14:34:18;;;;;;;;;;;;;;;10.01;62.90;99939.97;5088292;28;19928;-76
2021/09/16 14:36:58;;;;;;;;;;;;;;;10.03;61.23;99936.94;5109620;27;19924;-83
2021/09/16 14:39:39;;;;;;;;;;;;;;;9.89;61.21;99948.59;5096527;27;2163588;-83
2021/09/16 14:42:23;;;;;;;;;;;;;;;9.86;61.82;99937.44;5091446;28;19928;-83
2021/09/16 14:45:03;;;;;;;;;;;;;;;9.77;62.13;99940.03;5109280;27;20355;-81
2021/09/16 14:47:43;;;;;;;;;;;;;;;9.75;62.26;99933.22;5091866;27;2269505;-84
2021/09/16 14:50:22;;;;;;;;;;;;;;;9.82;62.02;99939.94;5069234;27;2266648;-86
2021/09/16 14:53:01;;;;;;;;;;;;;;;9.75;60.53;99939.50;5089931;27;2168434;-87
2021/09/16 14:55:42;;;;;;;;;;;;;;;9.73;60.35;99943.63;5069154;27;20451;-85
2021/09/16 14:58:23;;;;;;;;;;;;;;;9.72;59.79;99947.47;5108614;27;19997;-84
2021/09/16 15:01:04;;;;;;;;;;;;;;;9.69;60.30;99948.03;5108385;27;19970;-82
2021/09/16 15:03:44;;;;;;;;;;;;;;;9.61;60.49;99944.84;5088150;27;19929;-83
2021/09/16 15:06:26;;;;;;;;;;;;;;;9.63;60.56;99942.66;5088509;27;19982;-83
2021/09/16 15:09:07;;;;;;;;;;;;;;;9.60;60.67;99945.97;5089033;27;19951;-84
2021/09/16 15:11:49;;;;;;;;;;;;;;;9.62;61.07;99942.94;5088712;27;20277;-84
2021/09/16 15:14:30;;;;;;;;;;;;;;;9.62;61.15;99941.00;5088256;28;19932;-85
2021/09/16 15:17:07;;;;;;;;;;;;;;;9.79;61.00;99934.25;5062721;27;2666895;-83
2021/09/16 15:19:48;;;;;;;;;;;;;;;9.95;61.18;99927.50;5108258;27;19924;-85
2021/09/16 15:22:28;;;;;;;;;;;;;;;10.02;59.92;99932.59;5087883;28;19924;-83
2021/09/16 15:25:06;;;;;;;;;;;;;;;10.12;60.78;99932.44;5079675;27;2184284;-83
2021/09/16 15:27:46;;;;;;;;;;;;;;;10.25;59.55;99930.91;5089887;28;19928;-84
2021/09/16 15:30:25;;;;;;;;;;;;;;;10.30;59.77;99939.09;5107501;27;20450;-84
2021/09/16 15:33:04;;;;;;;;;;;;;;;10.33;59.43;99936.56;5074319;27;2205316;-92
2021/09/16 15:35:45;;;;;;;;;;;;;;;10.25;58.87;99936.38;5090400;28;20294;-94
2021/09/16 15:38:41;;;;;;;;;;;;;;;10.14;58.70;99943.09;5090008;27;19925;-94
2021/09/16 15:41:22;;;;;;;;;;;;;;;10.01;59.11;99937.25;5063399;28;19925;-95
2021/09/16 15:44:03;;;;;;;;;;;;;;;9.94;59.70;99938.72;5126229;27;19977;-93
2021/09/16 15:46:43;;;;;;;;;;;;;;;9.95;59.81;99943.06;5070095;27;19995;-94
2021/09/16 15:49:24;;;;;;;;;;;;;;;9.86;58.75;99942.91;5070243;28;20302;-93
2021/09/16 15:52:06;;;;;;;;;;;;;;;9.96;59.56;99950.16;5070420;28;19929;-93
2021/09/16 15:54:48;;;;;;;;;;;;;;;10.02;59.42;99949.00;5064210;28;19967;-96
2021/09/16 15:57:28;;;;;;;;;;;;;;;10.02;59.24;99949.78;5070010;28;19929;-94
2021/09/16 16:00:09;;;;;;;;;;;;;;;9.97;59.50;99947.16;5123028;27;19933;-95
2021/09/16 16:03:06;;;;;;;;;;;;;;;10.07;59.93;99940.75;5069930;28;19929;-92
2021/09/16 16:05:49;;;;;;;;;;;;;;;10.15;59.35;99953.72;5090607;27;19978;-95
2021/09/16 16:08:30;;;;;;;;;;;;;;;10.03;58.66;99956.06;5110079;27;19950;-89
2021/09/16 16:11:12;;;;;;;;;;;;;;;9.92;58.88;99963.59;5120586;27;19928;-92
2021/09/16 16:13:49;;;;;;;;;;;;;;;9.87;57.84;99958.22;5081559;27;2276986;-90
2021/09/16 16:16:30;;;;;;;;;;;;;;;9.82;58.45;99959.06;5094122;27;20339;-90
2021/09/16 16:19:10;;;;;;;;;;;;;;;9.95;58.88;99965.72;5069709;27;20352;-91
2021/09/16 16:21:51;;;;;;;;;;;;;;;10.04;58.39;99960.44;5121028;27;19975;-90
2021/09/16 16:24:30;;;;;;;;;;;;;;;9.99;58.18;99961.31;5094009;27;2228844;-94
2021/09/16 16:27:12;;;;;;;;;;;;;;;10.03;58.43;99956.06;5049964;28;19932;-90
2021/09/16 16:29:52;;;;;;;;;;;;;;;10.00;57.87;99960.22;5090664;27;20436;-90
2021/09/16 16:32:32;;;;;;;;;;;;;;;9.87;57.83;99952.75;5120171;27;19928;-92
2021/09/16 16:35:11;;;;;;;;;;;;;;;9.80;58.79;99964.03;5082009;27;2325655;-90
2021/09/16 16:37:53;;;;;;;;;;;;;;;9.79;58.49;99961.56;5092469;27;20320;-92
2021/09/16 16:40:32;;;;;;;;;;;;;;;9.76;58.94;99971.16;5093146;27;2260475;-91
2021/09/16 16:43:10;;;;;;;;;;;;;;;9.77;58.65;99969.25;5085543;27;2189382;-91
2021/09/16 16:45:51;;;;;;;;;;;;;;;9.80;58.90;99965.91;5091240;27;19928;-92
2021/09/16 16:48:32;;;;;;;;;;;;;;;9.83;59.54;99962.59;5090304;27;19925;-92
2021/09/16 16:51:02;;;;;;;;;;;;;;;9.89;58.90;99978.63;5091109;28;20381;-92
2021/09/16 16:53:42;;;;;;;;;;;;;;;9.89;58.18;99959.50;5090308;27;19970;-92
2021/09/16 16:56:24;;;;;;;;;;;;;;;9.82;58.63;99960.97;5092616;27;19928;-92
2021/09/16 16:59:05;;;;;;;;;;;;;;;9.88;58.94;99966.09;5122990;27;20024;-90
2021/09/16 17:01:46;;;;;;;;;;;;;;;9.91;58.87;99969.34;5090557;27;19978;-90
2021/09/16 17:04:28;;;;;;;;;;;;;;;10.05;58.57;99976.53;5110559;27;20343;-89
2021/09/16 17:07:09;;;;;;;;;;;;;;;10.11;59.76;99972.63;5089874;28;20434;-82
2021/09/16 17:09:51;;;;;;;;;;;;;;;10.17;59.04;99972.56;5171224;27;19971;-82
2021/09/16 17:12:31;;;;;;;;;;;;;;;10.20;61.21;99956.41;5101104;27;19929;-82
2021/09/16 17:15:11;;;;;;;;;;;;;;;10.23;61.73;99965.91;5085231;27;2125122;-88
2021/09/16 17:17:48;;;;;;;;;;;;;;;10.30;62.88;99963.69;5079795;27;2137535;-91
2021/09/16 17:20:30;;;;;;;;;;;;;;;10.35;62.80;99963.59;5123427;27;19978;-92
2021/09/16 17:23:11;;;;;;;;;;;;;;;10.38;62.02;99963.00;5091173;27;19928;-92
2021/09/16 17:25:49;;;;;;;;;;;;;;;10.38;62.57;99962.19;5078382;27;2289607;-90
2021/09/16 17:28:31;;;;;;;;;;;;;;;10.43;62.83;99960.19;5093631;27;19924;-91
2021/09/16 17:31:17;;;;;;;;;;;;;;;10.47;62.41;99963.97;5151517;27;19971;-91
2021/09/16 17:33:57;;;;;;;;;;;;;;;10.51;62.37;99967.72;5089895;27;19978;-92
2021/09/16 17:36:38;;;;;;;;;;;;;;;10.51;63.01;99966.91;5069024;28;19924;-92
2021/09/16 17:39:18;;;;;;;;;;;;;;;10.48;62.33;99968.31;5097663;27;19978;-90
2021/09/16 17:41:59;;;;;;;;;;;;;;;10.53;63.04;99970.16;5089500;27;20339;-90
2021/09/16 17:44:40;;;;;;;;;;;;;;;10.54;62.68;99964.41;5069287;28;20364;-93
2021/09/16 17:47:22;;;;;;;;;;;;;;;10.63;62.76;99963.72;5112358;27;19930;-92
2021/09/16 17:50:05;;;;;;;;;;;;;;;10.65;63.14;99969.72;5109589;27;19920;-92
2021/09/16 17:52:47;;;;;;;;;;;;;;;10.64;62.71;99970.81;5088698;27;19950;-90
2021/09/16 17:55:26;;;;;;;;;;;;;;;10.60;63.73;99972.53;5041177;27;3131753;-90
2021/09/16 17:58:09;;;;;;;;;;;;;;;10.54;62.81;99961.66;5066177;28;19971;-90
2021/09/16 18:00:50;;;;;;;;;;;;;;;10.52;62.44;99965.78;5089315;27;19981;-90
2021/09/16 18:03:30;;;;;;;;;;;;;;;10.55;62.60;99967.94;5107696;27;19950;-94
2021/09/16 18:06:12;;;;;;;;;;;;;;;10.53;62.51;99965.50;5120408;27;19949;-91
2021/09/16 18:08:52;;;;;;;;;;;;;;;10.54;62.00;99967.13;5091504;27;19928;-93
2021/09/16 18:11:30;;;;;;;;;;;;;;;10.48;62.73;99967.50;5039029;27;2347226;-93
2021/09/16 18:14:13;;;;;;;;;;;;;;;10.48;62.83;99967.50;5099903;27;20393;-91
2021/09/16 18:16:51;;;;;;;;;;;;;;;10.50;62.67;99965.31;5066578;27;2299132;-92
2021/09/16 18:19:31;;;;;;;;;;;;;;;10.50;62.53;99960.63;5138761;27;19932;-91
2021/09/16 18:22:11;;;;;;;;;;;;;;;10.49;62.14;99961.72;5088664;27;19932;-90
2021/09/16 18:24:53;;;;;;;;;;;;;;;10.46;62.39;99973.28;5066526;28;19975;-90
2021/09/16 18:27:33;;;;;;;;;;;;;;;10.40;62.39;99965.41;5087769;27;20030;-92
2021/09/16 18:30:12;;;;;;;;;;;;;;;10.37;62.62;99969.59;5102495;27;19995;-92
2021/09/16 18:32:55;;;;;;;;;;;;;;;10.35;63.17;99963.59;5163712;27;19980;-91
2021/09/16 18:35:38;;;;;;;;;;;;;;;10.40;62.85;99968.16;5106923;27;19977;-89
2021/09/16 18:38:21;;;;;;;;;;;;;;;10.33;62.90;99969.38;5157868;27;19983;-89
2021/09/16 18:40:49;;;;;;;;;;;;;;;10.33;63.72;99974.00;5146751;27;19923;-90
2021/09/16 18:43:15;;;;;;;;;;;;;;;10.31;63.15;99979.75;5139898;27;19930;-92
2021/09/16 18:45:41;;;;;;;;;;;;;;;10.34;63.56;99975.63;5127664;27;20414;-90
2021/09/16 18:48:08;;;;;;;;;;;;;;;10.36;63.46;99981.59;5110341;27;19927;-91
2021/09/16 18:50:34;;;;;;;;;;;;;;;10.34;63.43;99981.09;5090329;28;19967;-85
2021/09/16 18:53:00;;;;;;;;;;;;;;;10.40;63.54;99970.88;5137005;27;19973;-85
2021/09/16 18:55:26;;;;;;;;;;;;;;;10.35;63.48;99977.25;5136253;27;19927;-83
2021/09/16 18:57:52;;;;;;;;;;;;;;;10.38;63.52;99978.59;5148844;27;20406;-84
2021/09/16 19:00:19;;;;;;;;;;;;;;;10.33;63.79;99982.19;5136795;27;20010;-84
2021/09/16 19:02:45;;;;;;;;;;;;;;;10.29;63.60;99975.69;5129959;27;19923;-83
2021/09/16 19:05:17;;;;;;;;;;;;;;;10.32;64.04;99975.09;5137174;27;19923;-83
2021/09/16 19:07:45;;;;;;;;;;;;;;;10.30;63.19;99977.34;5130364;27;19968;-84
2021/09/16 19:10:16;;;;;;;;;;;;;;;10.29;63.43;99967.50;5121421;27;19948;-84
2021/09/16 19:12:49;;;;;;;;;;;;;;;10.33;63.74;99960.31;5155840;27;19927;-84
2021/09/16 19:15:37;;;;;;;;;;;;;;;10.35;63.21;99963.59;5135948;27;19924;-84